createdAt,value
2023-03-27T00:02:23.760Z,97615.56
2023-03-27T00:05:10.883Z,97616.88
2023-03-27T00:07:58.199Z,97607.19
2023-03-27T00:10:48.055Z,97614.38
2023-03-27T00:13:36.539Z,97602.41
2023-03-27T00:16:37.439Z,97594.19
2023-03-27T00:19:25.222Z,97591.84
2023-03-27T00:22:12.980Z,97606.72
2023-03-27T00:25:00.120Z,97615.91
2023-03-27T00:27:47.398Z,97614.09
2023-03-27T00:30:35.499Z,97614.81
2023-03-27T00:33:23.940Z,97628.63
2023-03-27T00:36:11.614Z,97627.16
2023-03-27T00:38:58.933Z,97641.53
2023-03-27T00:41:46.109Z,97643.88
2023-03-27T00:44:34.629Z,97642.88
2023-03-27T00:47:38.794Z,97638.53
2023-03-27T00:50:31.154Z,97632.50
2023-03-27T00:53:23.259Z,97613.00
2023-03-27T00:56:10.929Z,97620.50
2023-03-27T00:59:02.319Z,97640.03
2023-03-27T01:01:49.530Z,97624.16
2023-03-27T01:04:38.912Z,97629.84
2023-03-27T01:07:26.126Z,97639.34
2023-03-27T01:10:13.506Z,97643.53
2023-03-27T01:13:28.272Z,97636.69
2023-03-27T01:16:38.991Z,97646.22
2023-03-27T01:19:47.913Z,97644.88
2023-03-27T01:23:12.522Z,97641.34
2023-03-27T01:26:08.399Z,97644.72
2023-03-27T01:29:10.501Z,97638.69
2023-03-27T01:32:22.168Z,97639.03
2023-03-27T01:35:30.876Z,97639.03
2023-03-27T01:39:05.627Z,97634.34
2023-03-27T01:42:07.884Z,97631.00
2023-03-27T01:45:15.896Z,97629.19
2023-03-27T01:48:08.809Z,97629.00
2023-03-27T01:51:02.092Z,97641.25
2023-03-27T01:53:56.334Z,97633.78
2023-03-27T01:57:02.665Z,97634.50
2023-03-27T01:59:57.260Z,97646.69
2023-03-27T02:03:11.379Z,97659.28
2023-03-27T02:06:04.562Z,97663.94
2023-03-27T02:09:04.206Z,97645.34
2023-03-27T02:12:01.279Z,97654.81
2023-03-27T02:14:54.379Z,97646.47
2023-03-27T02:17:50.147Z,97666.34
2023-03-27T02:20:39.948Z,97661.50
2023-03-27T02:23:27.052Z,97638.88
2023-03-27T02:26:14.279Z,97643.47
2023-03-27T02:29:20.877Z,97636.47
2023-03-27T02:32:22.615Z,97633.13
2023-03-27T02:35:31.278Z,97644.50
2023-03-27T02:38:41.308Z,97640.47
2023-03-27T02:41:41.191Z,97645.25
2023-03-27T02:44:46.377Z,97618.38
2023-03-27T02:47:41.325Z,97649.16
2023-03-27T02:50:34.412Z,97642.56
2023-03-27T02:53:28.612Z,97648.69
2023-03-27T02:56:19.031Z,97638.38
2023-03-27T02:59:10.442Z,97650.47
2023-03-27T03:01:58.847Z,97634.63
2023-03-27T03:04:58.234Z,97650.00
2023-03-27T03:07:46.627Z,97644.50
2023-03-27T03:10:33.835Z,97647.47
2023-03-27T03:13:20.879Z,97635.78
2023-03-27T03:16:08.960Z,97651.09
2023-03-27T03:18:56.390Z,97670.47
2023-03-27T03:21:43.611Z,97682.28
2023-03-27T03:24:30.693Z,97675.81
2023-03-27T03:27:21.219Z,97685.56
2023-03-27T03:30:09.824Z,97679.41
2023-03-27T03:32:57.673Z,97693.34
2023-03-27T03:35:50.741Z,97682.75
2023-03-27T03:38:38.317Z,97695.06
2023-03-27T03:41:25.711Z,97686.13
2023-03-27T03:44:12.795Z,97683.81
2023-03-27T03:46:59.878Z,97689.75
2023-03-27T03:49:46.987Z,97685.25
2023-03-27T03:52:34.156Z,97691.81
2023-03-27T03:55:21.306Z,97693.19
2023-03-27T03:58:20.209Z,97705.47
2023-03-27T04:01:09.167Z,97700.72
2023-03-27T04:03:56.549Z,97705.97
2023-03-27T04:06:45.038Z,97700.06
2023-03-27T04:09:32.103Z,97715.44
2023-03-27T04:12:19.344Z,97708.50
2023-03-27T04:15:07.366Z,97719.00
2023-03-27T04:17:54.695Z,97713.50
2023-03-27T04:20:42.043Z,97715.44
2023-03-27T04:23:32.044Z,97689.25
2023-03-27T04:26:19.217Z,97723.94
2023-03-27T04:29:10.529Z,97729.03
2023-03-27T04:31:58.928Z,97722.34
2023-03-27T04:34:48.429Z,97733.06
2023-03-27T04:37:36.173Z,97725.50
2023-03-27T04:40:25.691Z,97725.06
2023-03-27T04:43:13.520Z,97705.13
2023-03-27T04:46:00.712Z,97731.53
2023-03-27T04:48:47.928Z,97734.72
2023-03-27T04:51:35.013Z,97742.34
2023-03-27T04:54:23.230Z,97730.19
2023-03-27T04:57:10.596Z,97742.66
2023-03-27T04:59:59.094Z,97740.34
2023-03-27T05:02:48.046Z,97733.06
2023-03-27T05:05:35.237Z,97743.72
2023-03-27T05:08:22.840Z,97741.56
2023-03-27T05:11:10.930Z,97739.91
2023-03-27T05:13:58.047Z,97750.03
2023-03-27T05:16:45.733Z,97742.78
2023-03-27T05:19:32.816Z,97745.41
2023-03-27T05:22:19.847Z,97756.03
2023-03-27T05:25:07.485Z,97752.16
2023-03-27T05:27:54.771Z,97751.31
2023-03-27T05:30:42.540Z,97748.41
2023-03-27T05:33:29.694Z,97745.53
2023-03-27T05:36:16.778Z,97758.53
2023-03-27T05:39:04.821Z,97763.00
2023-03-27T05:41:52.152Z,97759.22
2023-03-27T05:44:39.208Z,97762.16
2023-03-27T05:47:26.436Z,97749.94
2023-03-27T05:50:14.800Z,97769.03
2023-03-27T05:53:04.605Z,97762.47
2023-03-27T05:56:03.043Z,97776.16
2023-03-27T05:58:50.928Z,97764.38
2023-03-27T06:01:39.983Z,97760.59
2023-03-27T06:04:28.738Z,97785.78
2023-03-27T06:07:16.071Z,97762.63
2023-03-27T06:10:03.419Z,97784.78
2023-03-27T06:13:03.007Z,97802.38
2023-03-27T06:15:53.911Z,97799.78
2023-03-27T06:18:41.440Z,97795.22
2023-03-27T06:21:28.507Z,97797.94
2023-03-27T06:24:15.607Z,97800.69
2023-03-27T06:27:03.910Z,97800.63
2023-03-27T06:29:51.005Z,97811.72
2023-03-27T06:32:43.984Z,97805.94
2023-03-27T06:35:33.350Z,97810.94
2023-03-27T06:38:21.240Z,97790.94
2023-03-27T06:41:08.284Z,97806.00
2023-03-27T06:43:55.405Z,97806.84
2023-03-27T06:46:45.435Z,97818.75
2023-03-27T06:49:33.122Z,97816.78
2023-03-27T06:52:20.184Z,97818.22
2023-03-27T06:55:08.680Z,97824.22
2023-03-27T06:58:03.454Z,97836.31
2023-03-27T07:00:51.446Z,97823.66
2023-03-27T07:03:38.880Z,97813.72
2023-03-27T07:06:25.948Z,97826.78
2023-03-27T07:09:13.551Z,97812.16
2023-03-27T07:12:00.733Z,97834.69
2023-03-27T07:14:47.869Z,97825.91
2023-03-27T07:17:47.685Z,97834.44
2023-03-27T07:20:36.392Z,97841.91
2023-03-27T07:23:23.498Z,97830.97
2023-03-27T07:26:10.766Z,97844.16
2023-03-27T07:29:00.776Z,97830.03
2023-03-27T07:31:56.848Z,97830.88
2023-03-27T07:34:46.500Z,97824.63
2023-03-27T07:37:33.598Z,97852.00
2023-03-27T07:40:26.622Z,97852.34
2023-03-27T07:43:24.576Z,97851.31
2023-03-27T07:46:11.879Z,97845.13
2023-03-27T07:48:59.009Z,97863.66
2023-03-27T07:51:46.729Z,97867.38
2023-03-27T07:54:33.965Z,97871.41
2023-03-27T07:57:21.146Z,97883.91
2023-03-27T08:00:15.410Z,97887.84
2023-03-27T08:03:11.004Z,97882.66
2023-03-27T08:08:26.048Z,97897.50
2023-03-27T08:11:19.756Z,97914.25
2023-03-27T08:14:14.837Z,97911.66
2023-03-27T08:17:14.424Z,97953.94
2023-03-27T08:20:09.376Z,97974.66
2023-03-27T08:22:56.637Z,97967.25
2023-03-27T08:25:43.717Z,97970.69
2023-03-27T08:28:32.965Z,97991.06
2023-03-27T08:31:20.661Z,97986.66
2023-03-27T08:34:09.451Z,97997.25
2023-03-27T08:36:56.533Z,98005.53
2023-03-27T08:39:46.846Z,98006.78
2023-03-27T08:42:37.367Z,98021.41
2023-03-27T08:45:32.179Z,98038.06
2023-03-27T08:48:47.006Z,98048.44
2023-03-27T08:51:59.731Z,98050.69
2023-03-27T08:54:53.628Z,98085.03
2023-03-27T08:57:40.996Z,98073.22
2023-03-27T09:00:39.774Z,98092.50
2023-03-27T09:03:35.393Z,98095.59
2023-03-27T09:06:30.336Z,98101.56
2023-03-27T09:09:39.202Z,98131.78
2023-03-27T09:13:04.769Z,98132.31
2023-03-27T09:16:03.293Z,98120.03
2023-03-27T09:19:03.561Z,98164.38
2023-03-27T09:21:58.010Z,98170.97
2023-03-27T09:24:49.141Z,98196.94
2023-03-27T09:27:37.862Z,98182.47
2023-03-27T09:30:33.728Z,98190.50
2023-03-27T09:33:20.800Z,98192.88
2023-03-27T09:36:08.378Z,98219.66
2023-03-27T09:39:06.015Z,98245.16
2023-03-27T09:42:16.864Z,98258.22
2023-03-27T09:45:08.124Z,98282.47
2023-03-27T09:48:02.575Z,98285.31
2023-03-27T09:50:49.702Z,98293.78
2023-03-27T09:53:38.951Z,98299.53
2023-03-27T09:56:27.505Z,98313.31
2023-03-27T09:59:38.044Z,98337.56
2023-03-27T10:02:28.943Z,98337.69
2023-03-27T10:05:20.261Z,98353.69
2023-03-27T10:08:30.983Z,98378.91
2023-03-27T10:11:22.466Z,98405.59
2023-03-27T10:14:16.916Z,98405.44
2023-03-27T10:17:05.295Z,98401.22
2023-03-27T10:19:57.333Z,98424.78
2023-03-27T10:22:56.804Z,98428.28
2023-03-27T10:25:50.689Z,98455.34
2023-03-27T10:28:40.933Z,98476.69
2023-03-27T10:31:30.012Z,98490.72
2023-03-27T10:34:41.325Z,98482.03
2023-03-27T10:37:34.614Z,98485.13
2023-03-27T10:40:26.656Z,98481.00
2023-03-27T10:43:18.310Z,98483.38
2023-03-27T10:46:11.218Z,98491.09
2023-03-27T10:49:10.757Z,98501.97
2023-03-27T10:52:22.203Z,98501.13
2023-03-27T10:55:23.982Z,98503.94
2023-03-27T10:58:23.666Z,98521.44
2023-03-27T11:01:26.602Z,98525.28
2023-03-27T11:04:45.065Z,98527.66
2023-03-27T11:07:38.099Z,98521.06
2023-03-27T11:10:41.395Z,98537.66
2023-03-27T11:13:37.684Z,98525.44
2023-03-27T11:16:32.796Z,98559.16
2023-03-27T11:19:22.689Z,98558.25
2023-03-27T11:22:17.352Z,98557.81
2023-03-27T11:25:15.435Z,98559.69
2023-03-27T11:28:22.909Z,98557.88
2023-03-27T11:31:39.355Z,98589.97
2023-03-27T11:34:53.999Z,98631.63
2023-03-27T11:37:57.187Z,98605.81
2023-03-27T11:40:47.875Z,98594.66
2023-03-27T11:43:38.769Z,98597.81
2023-03-27T11:47:03.587Z,98597.38
2023-03-27T11:50:18.673Z,98603.56
2023-03-27T11:53:11.773Z,98605.19
2023-03-27T11:56:02.010Z,98616.56
2023-03-27T11:59:34.873Z,98626.38
2023-03-27T12:02:59.330Z,98647.28
2023-03-27T12:05:56.207Z,98652.25
2023-03-27T12:08:55.719Z,98639.41
2023-03-27T12:11:50.142Z,98644.47
2023-03-27T12:14:41.254Z,98657.94
2023-03-27T12:17:43.289Z,98646.16
2023-03-27T12:20:52.849Z,98651.19
2023-03-27T12:24:03.103Z,98641.44
2023-03-27T12:27:11.634Z,98654.59
2023-03-27T12:30:05.102Z,98647.69
2023-03-27T12:33:20.857Z,98643.66
2023-03-27T12:36:13.384Z,98649.94
2023-03-27T12:39:00.626Z,98668.00
2023-03-27T12:41:48.053Z,98669.50
2023-03-27T12:45:03.279Z,98669.81
2023-03-27T12:48:10.145Z,98676.44
2023-03-27T12:50:58.622Z,98671.94
2023-03-27T12:53:56.521Z,98678.31
2023-03-27T12:56:43.743Z,98668.44
2023-03-27T12:59:49.226Z,98684.13
2023-03-27T13:02:45.955Z,98690.28
2023-03-27T13:06:13.111Z,98681.28
2023-03-27T13:09:13.886Z,98686.69
2023-03-27T13:12:22.555Z,98674.81
2023-03-27T13:15:24.713Z,98685.22
2023-03-27T13:18:31.850Z,98675.91
2023-03-27T13:21:28.874Z,98694.88
2023-03-27T13:24:34.476Z,98686.75
2023-03-27T13:27:49.050Z,98684.50
2023-03-27T13:30:45.303Z,98702.75
2023-03-27T13:33:32.431Z,98699.81
2023-03-27T13:36:22.911Z,98681.56
2023-03-27T13:39:21.299Z,98709.38
2023-03-27T13:42:15.709Z,98706.28
2023-03-27T13:45:15.531Z,98702.75
2023-03-27T13:48:32.445Z,98710.78
2023-03-27T13:51:42.977Z,98710.34
2023-03-27T13:55:01.403Z,98724.97
2023-03-27T13:58:10.394Z,98733.00
2023-03-27T14:01:13.618Z,98729.06
2023-03-27T14:04:25.918Z,98781.88
2023-03-27T14:07:28.072Z,98772.47
2023-03-27T14:10:33.336Z,98769.75
2023-03-27T14:13:41.710Z,98763.31
2023-03-27T14:16:52.155Z,98765.59
2023-03-27T14:20:02.066Z,98774.44
2023-03-27T14:22:54.147Z,98777.44
2023-03-27T14:25:49.484Z,98777.44
2023-03-27T14:28:54.575Z,98772.09
2023-03-27T14:31:44.508Z,98778.13
2023-03-27T14:34:47.220Z,98790.66
2023-03-27T14:37:40.115Z,98786.84
2023-03-27T14:40:33.070Z,98792.19
2023-03-27T14:43:22.099Z,98796.84
2023-03-27T14:46:11.895Z,98806.50
2023-03-27T14:49:00.107Z,98796.28
2023-03-27T14:51:49.738Z,98827.78
2023-03-27T14:54:52.260Z,98830.19
2023-03-27T14:57:42.067Z,98822.28
2023-03-27T15:00:32.562Z,98819.28
2023-03-27T15:03:23.632Z,98821.78
2023-03-27T15:06:17.273Z,98827.75
2023-03-27T15:09:05.731Z,98835.13
2023-03-27T15:11:56.464Z,98826.25
2023-03-27T15:14:43.638Z,98831.81
2023-03-27T15:17:35.243Z,98828.41
2023-03-27T15:20:30.467Z,98859.03
2023-03-27T15:23:23.408Z,98875.63
2023-03-27T15:26:31.948Z,98884.59
2023-03-27T15:29:29.122Z,98885.69
2023-03-27T15:32:22.399Z,98899.81
2023-03-27T15:35:15.894Z,98879.28
2023-03-27T15:38:06.568Z,98889.00
2023-03-27T15:41:01.590Z,98922.25
2023-03-27T15:43:52.338Z,98927.63
2023-03-27T15:46:59.452Z,98924.56
2023-03-27T15:49:46.901Z,98933.75
2023-03-27T15:52:34.286Z,98919.78
2023-03-27T15:55:42.608Z,98930.28
2023-03-27T15:58:43.733Z,98922.03
2023-03-27T16:01:40.771Z,98941.19
2023-03-27T16:04:38.374Z,98951.69
2023-03-27T16:07:54.440Z,98964.06
2023-03-27T16:10:48.685Z,98968.09
2023-03-27T16:13:59.202Z,98967.13
2023-03-27T16:16:46.676Z,98951.50
2023-03-27T16:19:44.967Z,98968.28
2023-03-27T16:22:35.436Z,98968.25
2023-03-27T16:25:22.709Z,98978.06
2023-03-27T16:28:11.258Z,98989.81
2023-03-27T16:30:58.585Z,98984.69
2023-03-27T16:33:46.466Z,99011.41
2023-03-27T16:36:34.050Z,99022.03
2023-03-27T16:39:21.684Z,99000.50
2023-03-27T16:42:18.399Z,99006.06
2023-03-27T16:45:06.669Z,99004.13
2023-03-27T16:47:54.772Z,99001.13
2023-03-27T16:50:42.755Z,99021.97
2023-03-27T16:53:30.716Z,99027.34
2023-03-27T16:56:18.249Z,99031.81
2023-03-27T16:59:05.757Z,99036.41
2023-03-27T17:01:55.266Z,99032.81
2023-03-27T17:04:44.372Z,99040.03
2023-03-27T17:07:32.997Z,99046.34
2023-03-27T17:10:20.840Z,99053.91
2023-03-27T17:13:08.742Z,99063.97
2023-03-27T17:15:57.073Z,99078.13
2023-03-27T17:18:46.320Z,99071.09
2023-03-27T17:21:33.620Z,99065.13
2023-03-27T17:24:21.530Z,99090.84
2023-03-27T17:27:09.323Z,99088.00
2023-03-27T17:29:57.251Z,99099.44
2023-03-27T17:32:46.089Z,99085.66
2023-03-27T17:35:33.850Z,99081.09
2023-03-27T17:38:23.259Z,99096.56
2023-03-27T17:41:13.314Z,99105.94
2023-03-27T17:44:00.776Z,99073.59
2023-03-27T17:46:48.264Z,99109.84
2023-03-27T17:49:36.154Z,99102.06
2023-03-27T17:52:26.289Z,99116.97
2023-03-27T17:55:14.032Z,99140.75
2023-03-27T17:58:08.731Z,99144.63
2023-03-27T18:00:58.190Z,99205.59
2023-03-27T18:03:46.854Z,99196.34
2023-03-27T18:06:34.573Z,99211.75
2023-03-27T18:09:22.342Z,99229.81
2023-03-27T18:12:10.119Z,99240.03
2023-03-27T18:15:01.289Z,99201.88
2023-03-27T18:17:49.219Z,99174.03
2023-03-27T18:20:38.298Z,99156.38
2023-03-27T18:23:27.767Z,99162.91
2023-03-27T18:26:16.798Z,99176.63
2023-03-27T18:29:05.092Z,99174.75
2023-03-27T18:31:53.265Z,99191.47
2023-03-27T18:34:41.864Z,99199.53
2023-03-27T18:37:29.558Z,99183.25
2023-03-27T18:40:19.195Z,99192.03
2023-03-27T18:43:07.798Z,99202.09
2023-03-27T18:46:05.936Z,99188.28
2023-03-27T18:48:55.597Z,99186.38
2023-03-27T18:51:45.293Z,99191.09
2023-03-27T18:54:33.174Z,99186.53
2023-03-27T18:57:21.419Z,99184.00
2023-03-27T19:00:10.585Z,99191.66
2023-03-27T19:02:58.756Z,99187.47
2023-03-27T19:05:48.459Z,99187.94
2023-03-27T19:08:42.658Z,99137.75
2023-03-27T19:11:31.666Z,99183.69
2023-03-27T19:14:19.982Z,99180.09
2023-03-27T19:17:08.088Z,99172.44
2023-03-27T19:19:56.309Z,99190.84
2023-03-27T19:22:44.398Z,99181.44
2023-03-27T19:25:36.084Z,99188.78
2023-03-27T19:28:24.277Z,99180.28
2023-03-27T19:31:13.403Z,99190.59
2023-03-27T19:34:02.689Z,99184.25
2023-03-27T19:36:52.146Z,99188.97
2023-03-27T19:39:40.516Z,99184.00
2023-03-27T19:42:29.211Z,99193.91
2023-03-27T19:45:17.821Z,99199.88
2023-03-27T19:48:06.940Z,99205.34
2023-03-27T19:51:00.775Z,99192.16
2023-03-27T19:53:48.669Z,99202.69
2023-03-27T19:56:37.380Z,99210.66
2023-03-27T19:59:30.905Z,99201.13
2023-03-27T20:02:21.242Z,99209.84
2023-03-27T20:05:08.902Z,99219.50
2023-03-27T20:07:57.110Z,99211.94
2023-03-27T20:10:46.114Z,99204.44
2023-03-27T20:13:48.861Z,99200.19
2023-03-27T20:16:42.640Z,99189.78
2023-03-27T20:19:30.864Z,99184.03
2023-03-27T20:22:21.537Z,99199.94
2023-03-27T20:25:09.697Z,99197.50
2023-03-27T20:27:57.113Z,99206.78
2023-03-27T20:30:44.336Z,99204.31
2023-03-27T20:33:32.182Z,99206.41
2023-03-27T20:36:23.259Z,99218.59
2023-03-27T20:39:15.997Z,99224.28
2023-03-27T20:42:03.967Z,99213.00
2023-03-27T20:44:59.014Z,99208.19
2023-03-27T20:47:47.462Z,99234.56
2023-03-27T20:50:36.346Z,99229.56
2023-03-27T20:53:33.962Z,99235.22
2023-03-27T20:56:23.126Z,99263.53
2023-03-27T20:59:11.004Z,99282.44
2023-03-27T21:01:59.543Z,99278.84
2023-03-27T21:04:47.698Z,99270.75
2023-03-27T21:07:38.176Z,99250.41
2023-03-27T21:10:25.400Z,99256.88
2023-03-27T21:13:12.448Z,99268.59
2023-03-27T21:15:59.881Z,99244.88
2023-03-27T21:18:47.807Z,99262.56
2023-03-27T21:21:34.946Z,99285.25
2023-03-27T21:24:22.016Z,99267.75
2023-03-27T21:27:09.137Z,99271.13
2023-03-27T21:29:56.881Z,99273.41
2023-03-27T21:32:45.683Z,99289.22
2023-03-27T21:35:33.372Z,99274.47
2023-03-27T21:38:28.915Z,99280.22
2023-03-27T21:41:17.205Z,99284.88
2023-03-27T21:44:04.401Z,99273.78
2023-03-27T21:46:51.449Z,99275.25
2023-03-27T21:49:38.486Z,99272.97
2023-03-27T21:52:25.716Z,99278.66
2023-03-27T21:55:12.787Z,99281.78
2023-03-27T21:57:59.944Z,99282.28
2023-03-27T22:00:47.813Z,99285.38
2023-03-27T22:03:35.041Z,99278.94
2023-03-27T22:06:22.197Z,99280.06
2023-03-27T22:09:09.912Z,99280.16
2023-03-27T22:11:57.056Z,99260.59
2023-03-27T22:14:44.105Z,99274.88
2023-03-27T22:17:31.293Z,99273.75
2023-03-27T22:20:19.071Z,99272.59
2023-03-27T22:23:06.494Z,99281.19
2023-03-27T22:25:56.623Z,99291.78
2023-03-27T22:28:43.780Z,99303.69
2023-03-27T22:31:31.174Z,99283.81
2023-03-27T22:34:18.304Z,99282.00
2023-03-27T22:37:06.699Z,99291.16
2023-03-27T22:39:53.764Z,99291.56
2023-03-27T22:42:40.848Z,99294.41
2023-03-27T22:45:27.908Z,99269.88
2023-03-27T22:48:15.635Z,99280.56
2023-03-27T22:51:03.438Z,99297.91
2023-03-27T22:53:51.300Z,99306.19
2023-03-27T22:56:38.481Z,99301.00
2023-03-27T22:59:25.579Z,99298.44
2023-03-27T23:03:31.339Z,99297.72
2023-03-27T23:06:20.128Z,99293.69
2023-03-27T23:09:09.188Z,99300.28
2023-03-27T23:11:56.283Z,99313.69
2023-03-27T23:14:43.350Z,99293.06
2023-03-27T23:17:30.486Z,99308.56
2023-03-27T23:20:17.646Z,99306.31
2023-03-27T23:23:04.697Z,99318.94
2023-03-27T23:25:52.199Z,99311.63
2023-03-27T23:28:41.746Z,99325.19
2023-03-27T23:31:28.858Z,99339.25
2023-03-27T23:34:15.897Z,99324.00
2023-03-27T23:37:02.933Z,99305.31
2023-03-27T23:39:49.948Z,99337.47
2023-03-27T23:42:37.116Z,99331.06
2023-03-27T23:45:24.136Z,99322.28
2023-03-27T23:48:11.245Z,99337.03
2023-03-27T23:50:58.754Z,99338.22
2023-03-27T23:53:46.004Z,99344.63
2023-03-27T23:56:33.007Z,99336.69
2023-03-27T23:59:21.176Z,99332.44
